Time;durP1;ratioP1;P1;durP2;ratioP2;P2;SDS_P1;SDS_P2;PMS_P1;PMS_P2;Temp;Humidity;BMP_temperature;BMP_pressure;BME280_temperature;BME280_humidity;BME280_pressure;Samples;Min_cycle;Max_cycle;Signal;HPM_P1;HPM_P2
2023/12/22 00:02:13;;;;;;;;;;;16.40;53.80;;;;;;5068184;28;43020;-94
2023/12/22 00:04:38;;;;;;;;;;;16.30;53.80;;;;;;5068454;28;43735;-87
2023/12/22 00:07:04;;;;;;;;;;;16.20;53.70;;;;;;5068605;28;42942;-89
2023/12/22 00:09:29;;;;;;;;;;;16.40;53.90;;;;;;5082851;28;43111;-88
2023/12/22 00:11:55;;;;;;;;;;;16.40;53.90;;;;;;5088190;28;42875;-92
2023/12/22 00:14:20;;;;;;;;;;;16.50;53.90;;;;;;5088866;28;42996;-91
2023/12/22 00:16:46;;;;;;;;;;;;;;;;;;5088615;28;42920;-83
2023/12/22 00:19:12;;;;;;;;;;;16.20;53.80;;;;;;5068719;28;44741;-92
2023/12/22 00:21:37;;;;;;;;;;;16.30;53.90;;;;;;5085973;28;42907;-88
2023/12/22 00:24:03;;;;;;;;;;;16.30;53.90;;;;;;5074371;28;42938;-92
2023/12/22 00:26:28;;;;;;;;;;;16.30;53.90;;;;;;5068138;28;42921;-89
2023/12/22 00:28:54;;;;;;;;;;;16.10;53.70;;;;;;5067858;28;43563;-93
2023/12/22 00:31:19;;;;;;;;;;;16.20;53.90;;;;;;5069314;28;42956;-93
2023/12/22 00:33:45;;;;;;;;;;;16.40;54.00;;;;;;5071408;28;42973;-87
2023/12/22 00:36:10;;;;;;;;;;;16.30;54.00;;;;;;5088546;28;43044;-91
2023/12/22 00:38:36;;;;;;;;;;;16.40;54.10;;;;;;5087374;28;42955;-93
2023/12/22 00:41:01;;;;;;;;;;;16.50;54.20;;;;;;5087405;28;42894;-89
2023/12/22 00:43:27;;;;;;;;;;;16.30;54.00;;;;;;5086106;28;42968;-87
2023/12/22 00:45:52;;;;;;;;;;;16.30;54.00;;;;;;5087625;28;42932;-93
2023/12/22 00:48:18;;;;;;;;;;;16.40;54.10;;;;;;5087465;28;43501;-92
2023/12/22 00:50:43;;;;;;;;;;;16.50;54.10;;;;;;5086992;28;43578;-91
2023/12/22 00:53:09;;;;;;;;;;;16.30;54.00;;;;;;5077139;28;43482;-85
2023/12/22 00:55:35;;;;;;;;;;;16.50;54.10;;;;;;5066390;28;42969;-93
2023/12/22 00:58:00;;;;;;;;;;;16.40;54.00;;;;;;5067131;28;42899;-93
2023/12/22 01:00:26;;;;;;;;;;;16.30;54.00;;;;;;5067172;28;42827;-93
2023/12/22 01:02:51;;;;;;;;;;;16.30;54.00;;;;;;5068668;28;43625;-91
2023/12/22 01:05:17;;;;;;;;;;;16.30;54.00;;;;;;5067350;28;42891;-92
2023/12/22 01:07:42;;;;;;;;;;;16.40;54.00;;;;;;5073344;28;42847;-93
2023/12/22 01:10:09;;;;;;;;;;;16.10;53.90;;;;;;5087545;28;42870;-93
2023/12/22 01:12:34;;;;;;;;;;;16.20;54.00;;;;;;5087330;28;43079;-93
2023/12/22 01:15:00;;;;;;;;;;;16.30;54.00;;;;;;5071401;28;42870;-91
2023/12/22 01:17:25;;;;;;;;;;;16.30;54.00;;;;;;5077530;28;43471;-92
2023/12/22 01:19:51;;;;;;;;;;;16.30;54.00;;;;;;5086454;28;42974;-90
2023/12/22 01:22:16;;;;;;;;;;;16.40;54.00;;;;;;5086860;28;43665;-92
2023/12/22 01:24:43;;;;;;;;;;;16.30;54.00;;;;;;5085404;28;43086;-89
2023/12/22 01:27:09;;;;;;;;;;;16.40;54.00;;;;;;5086899;28;43819;-86
2023/12/22 01:29:35;;;;;;;;;;;16.30;53.90;;;;;;5074933;28;42910;-93
2023/12/22 01:32:00;;;;;;;;;;;16.30;53.90;;;;;;5067061;28;43002;-93
2023/12/22 01:34:26;;;;;;;;;;;16.30;54.00;;;;;;5066759;28;43037;-91
2023/12/22 01:36:51;;;;;;;;;;;16.30;53.90;;;;;;5066897;28;43266;-93
2023/12/22 01:39:17;;;;;;;;;;;16.20;53.80;;;;;;5071349;28;42976;-89
2023/12/22 01:41:42;;;;;;;;;;;16.40;53.90;;;;;;5071102;28;42923;-86
2023/12/22 01:44:08;;;;;;;;;;;16.20;53.70;;;;;;5066819;28;42841;-87
2023/12/22 01:46:34;;;;;;;;;;;16.30;53.80;;;;;;5063187;28;42938;-92
2023/12/22 01:49:03;;;;;;;;;;;16.20;53.80;;;;;;5064935;28;42815;-87
2023/12/22 01:51:31;;;;;;;;;;;16.30;53.80;;;;;;5065903;28;43012;-93
2023/12/22 01:53:56;;;;;;;;;;;16.30;53.90;;;;;;5065409;28;42890;-93
2023/12/22 01:56:22;;;;;;;;;;;16.40;53.90;;;;;;5066954;28;43715;-92
2023/12/22 01:58:48;;;;;;;;;;;16.50;53.90;;;;;;5065806;28;42879;-93
2023/12/22 02:01:13;;;;;;;;;;;16.40;53.90;;;;;;5084368;28;44328;-94
2023/12/22 02:03:39;;;;;;;;;;;16.40;54.00;;;;;;5085929;28;42875;-84
2023/12/22 02:06:05;;;;;;;;;;;16.20;53.90;;;;;;5085895;28;42896;-93
2023/12/22 02:08:32;;;;;;;;;;;16.30;53.80;;;;;;5085061;28;42831;-94
2023/12/22 02:10:57;;;;;;;;;;;16.40;53.90;;;;;;5086448;28;44303;-89
2023/12/22 02:13:23;;;;;;;;;;;16.40;53.90;;;;;;5084411;28;42995;-91
2023/12/22 02:15:51;;;;;;;;;;;16.40;53.90;;;;;;5065476;28;42906;-81
2023/12/22 02:18:20;;;;;;;;;;;16.20;53.80;;;;;;5067382;28;42883;-89
2023/12/22 02:20:46;;;;;;;;;;;16.30;53.80;;;;;;5084841;28;43865;-93
2023/12/22 02:23:11;;;;;;;;;;;16.20;53.70;;;;;;5048069;28;45364;-88
2023/12/22 02:25:37;;;;;;;;;;;16.20;53.70;;;;;;5065211;28;43661;-91
2023/12/22 02:28:07;;;;;;;;;;;16.30;53.80;;;;;;5065759;28;42955;-89
2023/12/22 02:30:42;;;;;;;;;;;16.10;53.60;;;;;;5065502;28;42946;-89
2023/12/22 02:33:08;;;;;;;;;;;16.40;53.70;;;;;;5066251;28;43054;-93
2023/12/22 02:35:36;;;;;;;;;;;16.50;53.90;;;;;;5072505;28;44309;-91
2023/12/22 02:38:01;;;;;;;;;;;16.40;53.70;;;;;;5085921;28;42995;-90
2023/12/22 02:40:27;;;;;;;;;;;16.40;53.90;;;;;;5086051;28;42768;-91
2023/12/22 02:42:53;;;;;;;;;;;16.30;53.80;;;;;;5086588;28;42932;-94
2023/12/22 02:45:19;;;;;;;;;;;16.30;53.80;;;;;;5065921;28;44565;-84
2023/12/22 02:47:45;;;;;;;;;;;16.30;53.80;;;;;;5085978;28;43205;-91
2023/12/22 02:50:11;;;;;;;;;;;16.20;53.70;;;;;;5086246;28;43663;-91
2023/12/22 02:52:37;;;;;;;;;;;16.30;53.80;;;;;;5086084;28;42995;-83
2023/12/22 02:55:03;;;;;;;;;;;16.40;54.00;;;;;;5066947;28;44019;-91
2023/12/22 02:57:28;;;;;;;;;;;16.40;54.00;;;;;;5072472;28;42962;-91
2023/12/22 02:59:54;;;;;;;;;;;16.40;53.90;;;;;;5065342;28;43591;-80
2023/12/22 03:02:20;;;;;;;;;;;;;;;;;;5068748;28;42969;-92
2023/12/22 03:04:46;;;;;;;;;;;16.30;53.80;;;;;;5086265;28;42784;-91
2023/12/22 03:07:12;;;;;;;;;;;16.40;53.90;;;;;;5084309;28;42868;-87
2023/12/22 03:09:37;;;;;;;;;;;16.40;53.80;;;;;;5085376;28;43482;-94
2023/12/22 03:12:03;;;;;;;;;;;16.30;53.80;;;;;;5067757;28;43012;-93
2023/12/22 03:14:29;;;;;;;;;;;16.50;53.90;;;;;;5085290;28;43026;-93
2023/12/22 03:16:55;;;;;;;;;;;16.40;53.80;;;;;;5077169;28;43179;-94
2023/12/22 03:19:22;;;;;;;;;;;16.50;53.90;;;;;;5084958;28;44064;-91
2023/12/22 03:21:48;;;;;;;;;;;16.50;53.90;;;;;;5076148;28;43063;-93
2023/12/22 03:24:13;;;;;;;;;;;16.20;53.80;;;;;;5065425;28;42896;-94
2023/12/22 03:26:39;;;;;;;;;;;16.50;53.90;;;;;;5066250;28;42850;-91
2023/12/22 03:29:05;;;;;;;;;;;16.20;53.80;;;;;;5064512;28;43522;-88
2023/12/22 03:31:30;;;;;;;;;;;16.40;53.90;;;;;;5072922;28;43143;-94
2023/12/22 03:33:56;;;;;;;;;;;16.20;53.80;;;;;;5067853;28;44645;-93
2023/12/22 03:36:21;;;;;;;;;;;16.20;53.80;;;;;;5086658;28;42904;-85
2023/12/22 03:38:47;;;;;;;;;;;16.40;53.90;;;;;;5086110;28;43026;-93
2023/12/22 03:41:12;;;;;;;;;;;16.40;53.70;;;;;;5084253;28;43068;-93
2023/12/22 03:43:38;;;;;;;;;;;16.20;53.70;;;;;;5066002;28;42956;-94
2023/12/22 03:46:03;;;;;;;;;;;16.50;53.80;;;;;;5065569;28;42969;-93
2023/12/22 03:48:29;;;;;;;;;;;16.40;53.70;;;;;;5065736;28;42865;-91
2023/12/22 03:50:54;;;;;;;;;;;16.30;53.70;;;;;;5065591;28;42925;-93
2023/12/22 03:53:20;;;;;;;;;;;16.20;53.70;;;;;;5079499;28;43024;-91
2023/12/22 03:55:45;;;;;;;;;;;16.30;53.60;;;;;;5075285;28;42934;-92
2023/12/22 03:58:11;;;;;;;;;;;16.40;53.80;;;;;;5088483;28;42870;-94
2023/12/22 04:00:37;;;;;;;;;;;16.30;53.70;;;;;;5085811;28;42825;-94
2023/12/22 04:03:02;;;;;;;;;;;16.20;53.70;;;;;;5076692;28;43609;-85
2023/12/22 04:05:28;;;;;;;;;;;16.30;53.80;;;;;;5064966;28;43008;-90
2023/12/22 04:07:53;;;;;;;;;;;16.30;53.90;;;;;;5064930;28;43456;-89
2023/12/22 04:10:19;;;;;;;;;;;16.30;53.90;;;;;;5065212;28;42798;-87
2023/12/22 04:12:45;;;;;;;;;;;16.20;53.80;;;;;;5066163;28;43661;-86
2023/12/22 04:15:10;;;;;;;;;;;16.30;53.90;;;;;;5065234;28;42795;-93
2023/12/22 04:17:36;;;;;;;;;;;16.40;53.90;;;;;;5061142;28;43358;-88
2023/12/22 04:20:01;;;;;;;;;;;16.20;53.80;;;;;;5065030;28;42966;-87
2023/12/22 04:22:27;;;;;;;;;;;16.20;53.80;;;;;;5064843;28;43051;-93
2023/12/22 04:24:52;;;;;;;;;;;16.30;53.90;;;;;;5048158;28;43025;-88
2023/12/22 04:27:18;;;;;;;;;;;16.30;54.00;;;;;;5065202;28;43045;-93
2023/12/22 04:29:43;;;;;;;;;;;16.40;54.00;;;;;;5065432;28;42875;-93
2023/12/22 04:32:09;;;;;;;;;;;;;;;;;;5075411;28;43517;-91
2023/12/22 04:34:35;;;;;;;;;;;;;;;;;;5086467;28;43048;-89
2023/12/22 04:37:01;;;;;;;;;;;16.40;54.00;;;;;;5088311;28;44054;-90
2023/12/22 04:39:26;;;;;;;;;;;16.20;53.90;;;;;;5088600;28;42963;-93
2023/12/22 04:41:52;;;;;;;;;;;16.40;54.00;;;;;;5069027;28;43608;-88
2023/12/22 04:44:17;;;;;;;;;;;17.80;54.80;;;;;;5087993;28;42821;-93
2023/12/22 04:46:43;;;;;;;;;;;16.30;54.00;;;;;;5050084;28;44033;-94
2023/12/22 04:49:08;;;;;;;;;;;16.40;54.10;;;;;;5068364;28;43139;-89
2023/12/22 04:51:34;;;;;;;;;;;16.30;54.00;;;;;;5068540;28;43484;-92
2023/12/22 04:53:59;;;;;;;;;;;16.20;54.00;;;;;;5068295;28;42712;-90
2023/12/22 04:56:26;;;;;;;;;;;16.30;54.00;;;;;;5078696;28;43710;-90
2023/12/22 04:58:51;;;;;;;;;;;16.40;54.00;;;;;;5088003;28;43023;-94
2023/12/22 05:01:17;;;;;;;;;;;16.40;54.10;;;;;;5087787;28;42944;-94
2023/12/22 05:03:43;;;;;;;;;;;16.30;54.10;;;;;;5054014;28;43077;-86
2023/12/22 05:06:08;;;;;;;;;;;16.30;54.00;;;;;;5066037;28;43016;-93
2023/12/22 05:08:34;;;;;;;;;;;16.40;54.10;;;;;;5068070;28;42847;-91
2023/12/22 05:10:59;;;;;;;;;;;16.30;54.00;;;;;;5068225;28;43288;-94
2023/12/22 05:13:25;;;;;;;;;;;16.30;54.10;;;;;;5069488;28;42897;-93
2023/12/22 05:15:51;;;;;;;;;;;16.30;54.00;;;;;;5082515;28;44304;-89
2023/12/22 05:18:16;;;;;;;;;;;16.40;54.10;;;;;;5063488;28;42912;-92
2023/12/22 05:20:43;;;;;;;;;;;16.20;53.90;;;;;;5066849;28;42933;-84
2023/12/22 05:23:09;;;;;;;;;;;16.40;54.00;;;;;;5066224;28;44012;-94
2023/12/22 05:25:34;;;;;;;;;;;16.30;54.10;;;;;;5084306;28;43777;-91
2023/12/22 05:28:00;;;;;;;;;;;16.30;54.10;;;;;;5062267;28;42803;-92
2023/12/22 05:30:25;;;;;;;;;;;16.40;54.10;;;;;;5067507;28;43004;-93
2023/12/22 05:32:51;;;;;;;;;;;16.30;54.00;;;;;;5069245;28;42889;-82
2023/12/22 05:35:17;;;;;;;;;;;16.30;54.10;;;;;;5066001;28;43087;-94
2023/12/22 05:37:42;;;;;;;;;;;16.20;54.00;;;;;;5068568;28;42969;-83
2023/12/22 05:40:09;;;;;;;;;;;16.30;54.10;;;;;;5065685;28;42998;-83
2023/12/22 05:42:35;;;;;;;;;;;16.40;54.20;;;;;;5072483;28;43074;-90
2023/12/22 05:45:00;;;;;;;;;;;16.30;54.20;;;;;;5068821;28;43717;-83
2023/12/22 05:47:26;;;;;;;;;;;16.30;54.30;;;;;;5047984;28;42995;-81
2023/12/22 05:49:51;;;;;;;;;;;16.40;54.30;;;;;;5064251;28;43658;-82
2023/12/22 05:52:17;;;;;;;;;;;16.20;54.30;;;;;;5063132;28;42898;-86
2023/12/22 05:54:43;;;;;;;;;;;16.10;54.30;;;;;;5060517;28;43020;-83
2023/12/22 05:57:08;;;;;;;;;;;16.60;51.00;;;;;;5063482;28;43006;-80
2023/12/22 05:59:34;;;;;;;;;;;16.30;50.50;;;;;;5061231;28;43012;-83
2023/12/22 06:02:00;;;;;;;;;;;16.20;51.70;;;;;;5066444;28;43377;-84
2023/12/22 06:04:25;;;;;;;;;;;15.90;53.20;;;;;;5068720;28;43416;-85
2023/12/22 06:06:51;;;;;;;;;;;16.00;53.30;;;;;;5067546;28;42941;-84
2023/12/22 06:09:18;;;;;;;;;;;16.10;53.20;;;;;;5069035;28;42958;-84
2023/12/22 06:11:44;;;;;;;;;;;16.10;53.10;;;;;;5070296;28;42926;-83
2023/12/22 06:14:09;;;;;;;;;;;16.10;53.00;;;;;;5062796;28;43840;-81
2023/12/22 06:16:35;;;;;;;;;;;16.20;53.00;;;;;;5062042;28;43083;-82
2023/12/22 06:19:00;;;;;;;;;;;16.10;52.30;;;;;;5069664;28;43010;-83
2023/12/22 06:21:26;;;;;;;;;;;16.30;52.40;;;;;;5084871;28;43308;-82
2023/12/22 06:23:52;;;;;;;;;;;16.00;51.40;;;;;;5084463;28;42924;-82
2023/12/22 06:26:17;;;;;;;;;;;16.10;51.90;;;;;;5085405;28;43123;-83
2023/12/22 06:28:43;;;;;;;;;;;16.10;52.00;;;;;;5085226;28;42920;-83
2023/12/22 06:31:18;;;;;;;;;;;16.20;52.20;;;;;;5067256;28;43112;-81
2023/12/22 06:33:43;;;;;;;;;;;16.20;51.00;;;;;;5084645;28;43103;-81
2023/12/22 06:36:17;;;;;;;;;;;16.10;50.40;;;;;;5064938;28;42940;-82
2023/12/22 06:38:42;;;;;;;;;;;16.10;50.60;;;;;;5085040;28;43614;-81
2023/12/22 06:41:17;;;;;;;;;;;16.00;51.20;;;;;;5085450;28;42964;-82
2023/12/22 06:43:42;;;;;;;;;;;16.10;51.00;;;;;;5085362;28;43490;-82
2023/12/22 06:46:14;;;;;;;;;;;16.20;50.80;;;;;;5084923;28;42842;-84
2023/12/22 06:48:39;;;;;;;;;;;16.10;50.70;;;;;;5085359;28;43580;-82
2023/12/22 06:51:05;;;;;;;;;;;16.20;50.50;;;;;;5085706;28;42794;-83
2023/12/22 06:53:31;;;;;;;;;;;16.00;50.40;;;;;;5084840;28;42866;-82
2023/12/22 06:55:56;;;;;;;;;;;16.10;50.10;;;;;;5086212;28;42996;-83
2023/12/22 06:58:25;;;;;;;;;;;16.10;50.20;;;;;;5085735;28;43611;-82
2023/12/22 07:00:51;;;;;;;;;;;16.00;49.60;;;;;;5086385;28;42792;-82
2023/12/22 07:03:17;;;;;;;;;;;16.10;49.90;;;;;;5086015;28;43705;-82
2023/12/22 07:05:43;;;;;;;;;;;16.00;50.10;;;;;;5085566;28;42968;-82
2023/12/22 07:08:08;;;;;;;;;;;16.00;49.80;;;;;;5085568;28;42897;-82
2023/12/22 07:10:34;;;;;;;;;;;16.10;50.10;;;;;;5067881;28;42839;-83
2023/12/22 07:12:59;;;;;;;;;;;16.00;50.10;;;;;;5085599;28;43201;-82
2023/12/22 07:15:25;;;;;;;;;;;16.00;49.50;;;;;;5067528;28;42939;-82
2023/12/22 07:17:50;;;;;;;;;;;16.00;49.50;;;;;;5085847;28;42951;-82
2023/12/22 07:20:16;;;;;;;;;;;16.30;49.60;;;;;;5085945;28;42914;-84
2023/12/22 07:22:44;;;;;;;;;;;16.00;49.50;;;;;;5085552;28;43089;-83
2023/12/22 07:25:10;;;;;;;;;;;16.10;49.30;;;;;;5085389;28;42886;-83
2023/12/22 07:27:35;;;;;;;;;;;16.10;49.30;;;;;;5066540;28;45485;-82
2023/12/22 07:30:01;;;;;;;;;;;15.90;49.10;;;;;;5085519;28;42902;-82
2023/12/22 07:32:26;;;;;;;;;;;;;;;;;;5085501;28;42699;-83
2023/12/22 07:34:52;;;;;;;;;;;15.90;49.00;;;;;;5085388;28;43039;-82
2023/12/22 07:37:17;;;;;;;;;;;16.00;49.30;;;;;;5085103;28;42960;-82
2023/12/22 07:39:45;;;;;;;;;;;15.90;49.50;;;;;;5084981;28;42942;-83
2023/12/22 07:42:10;;;;;;;;;;;16.00;49.90;;;;;;5084670;28;42971;-82
2023/12/22 07:44:36;;;;;;;;;;;16.10;49.90;;;;;;5085529;28;42975;-83
2023/12/22 07:47:01;;;;;;;;;;;16.10;49.90;;;;;;5084653;28;43681;-82
2023/12/22 07:49:27;;;;;;;;;;;16.20;50.20;;;;;;5084096;28;42842;-82
2023/12/22 07:51:52;;;;;;;;;;;16.00;49.90;;;;;;5084496;28;42909;-82
2023/12/22 07:54:18;;;;;;;;;;;16.10;50.20;;;;;;5084919;28;42975;-82
2023/12/22 07:56:43;;;;;;;;;;;16.30;50.30;;;;;;5085030;28;43009;-82
2023/12/22 07:59:09;;;;;;;;;;;16.20;50.30;;;;;;5085282;28;42905;-83
2023/12/22 08:01:34;;;;;;;;;;;16.10;50.30;;;;;;5084570;28;43297;-82
2023/12/22 08:04:00;;;;;;;;;;;16.20;50.40;;;;;;5084949;27;43083;-82
2023/12/22 08:06:25;;;;;;;;;;;16.30;50.50;;;;;;5088387;28;42995;-82
2023/12/22 08:08:51;;;;;;;;;;;16.20;50.40;;;;;;5088468;28;42897;-82
2023/12/22 08:11:17;;;;;;;;;;;16.10;50.40;;;;;;5087930;28;42892;-82
2023/12/22 08:13:42;;;;;;;;;;;16.10;50.40;;;;;;5088077;28;42979;-82
2023/12/22 08:16:08;;;;;;;;;;;16.10;50.40;;;;;;5088810;28;43117;-82
2023/12/22 08:18:33;;;;;;;;;;;16.00;50.40;;;;;;5088475;28;42984;-82
2023/12/22 08:20:59;;;;;;;;;;;16.10;50.50;;;;;;5087889;28;43536;-82
2023/12/22 08:23:24;;;;;;;;;;;16.30;50.60;;;;;;5090179;28;43043;-83
2023/12/22 08:25:50;;;;;;;;;;;16.10;50.60;;;;;;5094629;28;43448;-82
2023/12/22 08:28:15;;;;;;;;;;;16.10;50.50;;;;;;5088457;28;42965;-82
2023/12/22 08:30:41;;;;;;;;;;;16.30;50.60;;;;;;5087790;28;43242;-82
2023/12/22 08:33:06;;;;;;;;;;;16.20;50.60;;;;;;5088789;28;43044;-82
2023/12/22 08:35:32;;;;;;;;;;;16.10;50.60;;;;;;5087872;28;42881;-82
2023/12/22 08:37:58;;;;;;;;;;;16.10;50.70;;;;;;5088405;28;42976;-82
2023/12/22 08:40:25;;;;;;;;;;;16.20;50.70;;;;;;5087628;28;43703;-82
2023/12/22 08:42:54;;;;;;;;;;;16.20;50.60;;;;;;5087895;28;42857;-82
2023/12/22 08:45:20;;;;;;;;;;;16.10;50.60;;;;;;5087319;28;42855;-82
2023/12/22 08:47:46;;;;;;;;;;;;;;;;;;5087167;28;43027;-82
2023/12/22 08:50:12;;;;;;;;;;;16.10;50.60;;;;;;5087100;28;43412;-83
2023/12/22 08:52:38;;;;;;;;;;;16.20;50.70;;;;;;5087057;28;43058;-82
2023/12/22 08:55:05;;;;;;;;;;;16.20;50.70;;;;;;5087981;28;43453;-82
2023/12/22 08:57:31;;;;;;;;;;;16.20;50.60;;;;;;5088081;28;42934;-82
2023/12/22 08:59:57;;;;;;;;;;;16.30;50.70;;;;;;5069268;28;45614;-82
2023/12/22 09:02:22;;;;;;;;;;;15.90;50.60;;;;;;5087472;28;42933;-82
2023/12/22 09:04:48;;;;;;;;;;;16.20;50.70;;;;;;5087070;28;43406;-82
2023/12/22 09:07:13;;;;;;;;;;;16.20;50.80;;;;;;5087202;28;43021;-83
2023/12/22 09:09:40;;;;;;;;;;;16.20;50.80;;;;;;5086861;28;42848;-82
2023/12/22 09:12:05;;;;;;;;;;;16.20;50.80;;;;;;5086790;28;42971;-82
2023/12/22 09:14:31;;;;;;;;;;;16.20;50.90;;;;;;5086997;28;43713;-82
2023/12/22 09:16:56;;;;;;;;;;;16.20;50.90;;;;;;5086616;27;42862;-82
2023/12/22 09:19:22;;;;;;;;;;;16.10;50.80;;;;;;5086538;28;42882;-82
2023/12/22 09:21:48;;;;;;;;;;;16.10;50.80;;;;;;5086674;28;43057;-82
2023/12/22 09:24:16;;;;;;;;;;;16.10;50.90;;;;;;5086738;28;43535;-82
2023/12/22 09:26:41;;;;;;;;;;;15.90;50.80;;;;;;5068916;28;43070;-82
2023/12/22 09:29:07;;;;;;;;;;;16.20;51.00;;;;;;5087213;28;43459;-82
2023/12/22 09:31:33;;;;;;;;;;;16.20;50.90;;;;;;5086897;28;42936;-82
2023/12/22 09:34:02;;;;;;;;;;;16.10;51.00;;;;;;5087151;28;43674;-82
2023/12/22 09:36:28;;;;;;;;;;;16.20;51.00;;;;;;5086908;28;42932;-82
2023/12/22 09:38:53;;;;;;;;;;;16.10;51.00;;;;;;5086132;28;42932;-82
2023/12/22 09:41:19;;;;;;;;;;;16.20;50.90;;;;;;5086559;28;42983;-82
2023/12/22 09:43:44;;;;;;;;;;;;;;;;;;5086843;28;43283;-82
2023/12/22 09:46:11;;;;;;;;;;;16.20;51.00;;;;;;5086721;28;42769;-82
2023/12/22 09:48:39;;;;;;;;;;;16.10;51.00;;;;;;5086259;28;43927;-82
2023/12/22 09:51:05;;;;;;;;;;;16.20;51.00;;;;;;5068162;28;42930;-83
2023/12/22 09:53:31;;;;;;;;;;;16.10;51.00;;;;;;5086749;28;43434;-82
2023/12/22 09:55:58;;;;;;;;;;;16.30;51.00;;;;;;5086974;28;42968;-82
2023/12/22 09:58:23;;;;;;;;;;;16.20;51.00;;;;;;5086740;28;42944;-82
2023/12/22 10:00:50;;;;;;;;;;;16.10;51.00;;;;;;5086438;28;43015;-82
2023/12/22 10:03:15;;;;;;;;;;;16.10;50.10;;;;;;5068782;28;42847;-83
2023/12/22 10:05:41;;;;;;;;;;;16.00;50.90;;;;;;5086560;28;42802;-82
2023/12/22 10:08:10;;;;;;;;;;;16.20;51.10;;;;;;5085862;28;42889;-82
2023/12/22 10:10:37;;;;;;;;;;;16.10;51.10;;;;;;5085958;28;43021;-82
2023/12/22 10:13:07;;;;;;;;;;;16.10;51.10;;;;;;5085952;28;42929;-82
2023/12/22 10:15:32;;;;;;;;;;;16.10;51.10;;;;;;5086500;28;42835;-83
2023/12/22 10:17:58;;;;;;;;;;;16.20;51.10;;;;;;5086120;28;43425;-82
2023/12/22 10:20:23;;;;;;;;;;;16.10;51.10;;;;;;5086435;28;42991;-82
2023/12/22 10:22:49;;;;;;;;;;;16.30;51.20;;;;;;5086443;28;43810;-82
2023/12/22 10:25:18;;;;;;;;;;;16.10;51.10;;;;;;5086153;28;43486;-82
2023/12/22 10:27:43;;;;;;;;;;;16.10;51.10;;;;;;5084827;28;43647;-83
2023/12/22 10:30:09;;;;;;;;;;;16.00;51.00;;;;;;5067029;28;43056;-82
2023/12/22 10:32:39;;;;;;;;;;;16.10;51.20;;;;;;5085733;28;43050;-82
2023/12/22 10:35:04;;;;;;;;;;;16.10;51.10;;;;;;5086195;28;42988;-82
2023/12/22 10:37:30;;;;;;;;;;;16.20;51.10;;;;;;5087218;28;43398;-83
2023/12/22 10:39:55;;;;;;;;;;;16.10;51.20;;;;;;5091968;28;42849;-82
2023/12/22 10:42:21;;;;;;;;;;;16.10;51.20;;;;;;5086027;28;43454;-83
2023/12/22 10:44:47;;;;;;;;;;;16.10;51.30;;;;;;5086684;28;42850;-82
2023/12/22 10:47:13;;;;;;;;;;;16.10;51.30;;;;;;5085908;28;43151;-82
2023/12/22 10:49:39;;;;;;;;;;;16.10;51.30;;;;;;5086442;28;42900;-82
2023/12/22 10:52:04;;;;;;;;;;;16.20;51.30;;;;;;5086012;28;43072;-82
2023/12/22 10:54:30;;;;;;;;;;;16.20;51.30;;;;;;5085761;28;42937;-82
2023/12/22 10:57:02;;;;;;;;;;;16.10;51.30;;;;;;5067264;28;43788;-82
2023/12/22 10:59:28;;;;;;;;;;;16.20;51.40;;;;;;5085926;28;42756;-81
2023/12/22 11:01:56;;;;;;;;;;;16.20;51.40;;;;;;5085347;28;42914;-82
2023/12/22 11:04:22;;;;;;;;;;;16.20;51.30;;;;;;5085032;28;42853;-82
2023/12/22 11:06:49;;;;;;;;;;;16.20;51.40;;;;;;5066400;28;43520;-82
2023/12/22 11:09:16;;;;;;;;;;;16.20;51.50;;;;;;5085562;28;42999;-82
2023/12/22 11:11:42;;;;;;;;;;;16.30;51.60;;;;;;5085478;28;43511;-82
2023/12/22 11:14:09;;;;;;;;;;;16.20;51.50;;;;;;5085114;28;42924;-82
2023/12/22 11:16:35;;;;;;;;;;;16.20;51.60;;;;;;5085013;28;42860;-82
2023/12/22 11:19:01;;;;;;;;;;;16.30;51.60;;;;;;5085787;28;42835;-82
2023/12/22 11:21:27;;;;;;;;;;;16.20;51.50;;;;;;5085965;28;43168;-82
2023/12/22 11:23:53;;;;;;;;;;;16.20;51.60;;;;;;5085420;28;42932;-83
2023/12/22 11:26:19;;;;;;;;;;;16.20;51.60;;;;;;5085431;28;43479;-82
2023/12/22 11:28:46;;;;;;;;;;;16.30;51.70;;;;;;5085087;28;42949;-82
2023/12/22 11:31:12;;;;;;;;;;;16.10;51.60;;;;;;5074239;28;42988;-82
2023/12/22 11:33:39;;;;;;;;;;;16.30;51.70;;;;;;5057476;28;43142;-82
2023/12/22 11:36:05;;;;;;;;;;;16.10;51.70;;;;;;5062864;28;43051;-82
2023/12/22 11:38:31;;;;;;;;;;;16.10;50.20;;;;;;5046292;28;43009;-83
2023/12/22 11:40:57;;;;;;;;;;;16.20;50.20;;;;;;5049657;28;45533;-84
2023/12/22 11:43:23;;;;;;;;;;;16.00;49.50;;;;;;5068227;28;42920;-83
2023/12/22 11:45:49;;;;;;;;;;;16.20;49.70;;;;;;5068259;28;43423;-83
2023/12/22 11:48:15;;;;;;;;;;;16.20;50.00;;;;;;5067708;28;42899;-85
2023/12/22 11:50:41;;;;;;;;;;;16.00;50.10;;;;;;5042210;28;43546;-85
2023/12/22 11:53:07;;;;;;;;;;;;;;;;;;5060889;28;42958;-84
2023/12/22 11:55:33;;;;;;;;;;;;;;;;;;5067272;28;42859;-82
2023/12/22 11:58:18;;;;;;;;;;;16.10;50.70;;;;;;5047335;28;43000;-83
2023/12/22 12:00:45;;;;;;;;;;;16.20;50.70;;;;;;5064435;28;43056;-82
2023/12/22 12:03:11;;;;;;;;;;;16.10;50.90;;;;;;5066122;28;43059;-83
2023/12/22 12:05:37;;;;;;;;;;;16.10;50.50;;;;;;5047480;28;44428;-83
2023/12/22 12:08:08;;;;;;;;;;;16.20;50.80;;;;;;5057404;28;43276;-81
2023/12/22 12:10:35;;;;;;;;;;;16.30;50.70;;;;;;5067863;28;43996;-87
2023/12/22 12:13:07;;;;;;;;;;;16.20;50.90;;;;;;5061957;28;43064;-82
2023/12/22 12:15:36;;;;;;;;;;;16.40;51.20;;;;;;5066447;28;43037;-84
2023/12/22 12:18:05;;;;;;;;;;;;;;;;;;5045360;28;42986;-84
2023/12/22 12:20:32;;;;;;;;;;;16.00;50.70;;;;;;5042075;28;44989;-93
2023/12/22 12:22:57;;;;;;;;;;;16.30;51.10;;;;;;5085666;28;43176;-88
2023/12/22 12:25:26;;;;;;;;;;;16.30;51.00;;;;;;5088206;28;43935;-92
2023/12/22 12:28:01;;;;;;;;;;;16.00;50.80;;;;;;5078683;28;43002;-90
2023/12/22 12:30:26;;;;;;;;;;;16.20;51.10;;;;;;5067611;28;43356;-87
2023/12/22 12:32:52;;;;;;;;;;;16.40;51.20;;;;;;5068103;28;42913;-90
2023/12/22 12:35:18;;;;;;;;;;;16.40;51.20;;;;;;5066442;28;43364;-87
2023/12/22 12:37:44;;;;;;;;;;;16.20;51.00;;;;;;5066586;28;42943;-89
2023/12/22 12:40:10;;;;;;;;;;;16.30;51.00;;;;;;5067186;28;43425;-88
2023/12/22 12:42:37;;;;;;;;;;;;;;;;;;5067942;28;43128;-88
2023/12/22 12:45:04;;;;;;;;;;;16.30;50.80;;;;;;5081606;28;44099;-90
2023/12/22 12:47:29;;;;;;;;;;;16.20;50.70;;;;;;5082434;28;43018;-89
2023/12/22 12:49:59;;;;;;;;;;;16.30;50.80;;;;;;5068502;28;43852;-90
2023/12/22 12:52:25;;;;;;;;;;;16.20;51.10;;;;;;5086323;28;42936;-90
2023/12/22 12:54:51;;;;;;;;;;;16.40;51.10;;;;;;5090067;28;42964;-86
2023/12/22 12:57:17;;;;;;;;;;;16.30;50.90;;;;;;5089304;28;43048;-89
2023/12/22 12:59:51;;;;;;;;;;;16.40;51.20;;;;;;5087332;28;43263;-87
2023/12/22 13:02:21;;;;;;;;;;;16.10;51.00;;;;;;5087384;28;42956;-87
2023/12/22 13:04:47;;;;;;;;;;;16.30;51.30;;;;;;5085031;28;42937;-87
2023/12/22 13:07:12;;;;;;;;;;;16.40;51.20;;;;;;5062329;28;43045;-87
2023/12/22 13:09:38;;;;;;;;;;;16.40;51.40;;;;;;5065805;28;43509;-85
2023/12/22 13:12:04;;;;;;;;;;;16.30;51.00;;;;;;5066828;28;42847;-84
2023/12/22 13:14:30;;;;;;;;;;;16.40;51.40;;;;;;5066587;28;43431;-88
2023/12/22 13:16:57;;;;;;;;;;;16.40;51.40;;;;;;5069299;28;42909;-87
2023/12/22 13:19:24;;;;;;;;;;;16.30;51.00;;;;;;5086796;28;43433;-90
2023/12/22 13:21:50;;;;;;;;;;;16.40;51.30;;;;;;5086204;28;42759;-90
2023/12/22 13:24:16;;;;;;;;;;;16.30;51.20;;;;;;5086641;28;43929;-90
2023/12/22 13:26:42;;;;;;;;;;;16.30;51.20;;;;;;5052904;28;43156;-89
2023/12/22 13:29:08;;;;;;;;;;;16.40;51.20;;;;;;5048707;28;44570;-89
2023/12/22 13:31:36;;;;;;;;;;;16.30;51.40;;;;;;5065771;28;43027;-90
2023/12/22 13:34:02;;;;;;;;;;;16.20;51.50;;;;;;5047008;28;44546;-87
2023/12/22 13:36:27;;;;;;;;;;;16.20;51.60;;;;;;5045008;28;43053;-92
2023/12/22 13:38:53;;;;;;;;;;;16.20;51.70;;;;;;5066666;28;43568;-88
2023/12/22 13:41:22;;;;;;;;;;;;;;;;;;5065993;28;42973;-91
2023/12/22 13:43:48;;;;;;;;;;;16.30;51.70;;;;;;5066286;28;44157;-89
2023/12/22 13:46:16;;;;;;;;;;;16.30;51.70;;;;;;5068504;28;43030;-89
2023/12/22 13:48:42;;;;;;;;;;;16.20;51.90;;;;;;5083700;28;43013;-87
2023/12/22 13:51:10;;;;;;;;;;;16.30;51.90;;;;;;5085100;28;42901;-90
2023/12/22 13:53:48;;;;;;;;;;;16.20;51.80;;;;;;5066615;28;45545;-86
2023/12/22 13:56:14;;;;;;;;;;;16.40;52.00;;;;;;5085399;28;43031;-90
2023/12/22 13:58:48;;;;;;;;;;;16.20;52.00;;;;;;5079442;28;44657;-86
2023/12/22 14:01:17;;;;;;;;;;;16.20;52.00;;;;;;5065591;28;43050;-88
2023/12/22 14:03:43;;;;;;;;;;;16.10;52.00;;;;;;5065084;28;43364;-88
2023/12/22 14:06:11;;;;;;;;;;;16.10;52.00;;;;;;5066382;28;42925;-87
2023/12/22 14:08:41;;;;;;;;;;;16.20;52.20;;;;;;5046749;28;44115;-87
2023/12/22 14:11:07;;;;;;;;;;;16.30;52.10;;;;;;5065968;28;42982;-87
2023/12/22 14:13:34;;;;;;;;;;;16.40;52.30;;;;;;5047662;28;45478;-87
2023/12/22 14:15:59;;;;;;;;;;;16.50;52.40;;;;;;5065635;28;42895;-86